Time;durP1;ratioP1;P1;durP2;ratioP2;P2;SDS_P1;SDS_P2;PMS_P1;PMS_P2;Temp;Humidity;BMP_temperature;BMP_pressure;BME280_temperature;BME280_humidity;BME280_pressure;Samples;Min_cycle;Max_cycle;Signal;HPM_P1;HPM_P2
2023/07/27 00:01:45;;;;;;;29.50;25.40;;;;;;;12.72;100.00;98328.81;137069;1269;22099;-81
2023/07/27 00:04:47;;;;;;;37.10;30.10;;;;;;;12.72;100.00;98318.16;137029;1279;22137;-82
2023/07/27 00:07:48;;;;;;;33.90;28.80;;;;;;;12.73;100.00;98317.98;137067;1279;22146;-81
2023/07/27 00:10:49;;;;;;;30.90;27.70;;;;;;;12.73;100.00;98318.67;137096;1279;22122;-78
2023/07/27 00:13:50;;;;;;;17.70;10.00;;;;;;;12.70;100.00;98320.95;137152;1279;22172;-81
2023/07/27 00:16:57;;;;;;;15.20;9.60;;;;;;;12.70;100.00;98327.25;137113;1279;22111;-82
2023/07/27 00:19:58;;;;;;;10.10;8.90;;;;;;;12.67;100.00;98325.86;137128;1279;22776;-80
2023/07/27 00:22:59;;;;;;;10.00;7.90;;;;;;;12.65;100.00;98321.50;137199;1279;22527;-81
2023/07/27 00:26:00;;;;;;;14.10;8.50;;;;;;;12.67;100.00;98323.41;137197;1279;22118;-80
2023/07/27 00:29:01;;;;;;;25.60;21.50;;;;;;;12.68;100.00;98330.23;137184;1279;22098;-81
2023/07/27 00:32:02;;;;;;;15.70;11.50;;;;;;;12.67;100.00;98331.27;137174;1279;22167;-79
2023/07/27 00:35:03;;;;;;;12.70;10.00;;;;;;;12.66;100.00;98331.97;137168;1279;22140;-81
2023/07/27 00:38:04;;;;;;;19.50;12.30;;;;;;;12.65;100.00;98334.25;137170;1272;22128;-81
2023/07/27 00:41:05;;;;;;;14.00;11.90;;;;;;;12.67;100.00;98331.27;137130;1279;22140;-81
2023/07/27 00:44:07;;;;;;;20.30;12.50;;;;;;;12.65;100.00;98337.39;137212;1279;22049;-81
2023/07/27 00:47:08;;;;;;;15.90;11.60;;;;;;;12.63;100.00;98339.50;137177;1279;22034;-81
2023/07/27 00:50:09;;;;;;;20.80;13.00;;;;;;;12.63;100.00;98340.55;137159;1279;22621;-81
2023/07/27 00:53:10;;;;;;;22.20;15.30;;;;;;;12.63;100.00;98339.50;137165;1279;22070;-79
2023/07/27 00:56:11;;;;;;;44.80;34.70;;;;;;;12.62;100.00;98331.30;137171;1279;22522;-81
2023/07/27 00:59:12;;;;;;;33.20;29.80;;;;;;;12.65;100.00;98334.42;137207;1279;22094;-81
2023/07/27 01:02:13;;;;;;;17.80;15.30;;;;;;;12.66;100.00;98342.27;137219;1279;22140;-81
2023/07/27 01:05:14;;;;;;;17.90;13.50;;;;;;;12.64;100.00;98344.90;137226;1279;22053;-81
2023/07/27 01:08:16;;;;;;;15.40;13.70;;;;;;;12.63;100.00;98347.00;137245;1279;22065;-81
2023/07/27 01:11:17;;;;;;;16.40;13.40;;;;;;;12.61;100.00;98350.33;137228;1279;22600;-80
2023/07/27 01:14:18;;;;;;;19.30;11.70;;;;;;;12.55;100.00;98361.34;137202;1279;22044;-80
2023/07/27 01:17:19;;;;;;;13.80;11.70;;;;;;;12.52;100.00;98364.16;137192;1279;22062;-82
2023/07/27 01:20:20;;;;;;;20.00;12.20;;;;;;;12.49;100.00;98366.60;137207;1279;22082;-80
2023/07/27 01:23:21;;;;;;;20.90;12.20;;;;;;;12.46;100.00;98368.54;137200;1279;22137;-81
2023/07/27 01:26:22;;;;;;;19.80;13.10;;;;;;;12.43;100.00;98370.98;137207;1279;22121;-84
2023/07/27 01:29:23;;;;;;;22.00;12.30;;;;;;;12.39;100.00;98373.27;137171;1279;22525;-80
2023/07/27 01:32:24;;;;;;;16.70;11.20;;;;;;;12.37;100.00;98379.04;137222;1279;22089;-80
2023/07/27 01:35:25;;;;;;;18.50;11.60;;;;;;;12.35;100.00;98377.47;137252;1279;22305;-82
2023/07/27 01:38:26;;;;;;;15.70;11.70;;;;;;;12.34;100.00;98377.82;137251;1279;22128;-79
2023/07/27 01:41:27;;;;;;;25.70;12.50;;;;;;;12.32;100.00;98369.27;137217;1279;22087;-80
2023/07/27 01:44:28;;;;;;;19.70;11.90;;;;;;;12.32;100.00;98368.23;137249;1279;22103;-80
2023/07/27 01:47:29;;;;;;;23.40;12.30;;;;;;;12.31;100.00;98372.08;137237;1279;22073;-80
2023/07/27 01:50:30;;;;;;;22.30;12.60;;;;;;;12.30;100.00;98371.20;137228;1279;22235;-80
2023/07/27 01:53:31;;;;;;;22.40;11.80;;;;;;;12.29;100.00;98377.30;137210;1279;22039;-80
2023/07/27 01:56:32;;;;;;;20.50;11.70;;;;;;;12.26;100.00;98371.56;137233;1279;22097;-81
2023/07/27 01:59:34;;;;;;;24.70;11.40;;;;;;;12.26;100.00;98383.59;137220;1279;22572;-81
2023/07/27 02:02:35;;;;;;;19.60;11.30;;;;;;;12.23;100.00;98386.74;137233;1279;22125;-80
2023/07/27 02:05:36;;;;;;;19.40;12.20;;;;;;;12.21;100.00;98392.52;137237;1279;22222;-80
2023/07/27 02:08:37;;;;;;;18.60;12.40;;;;;;;12.21;100.00;98391.46;137159;1279;22624;-80
2023/07/27 02:11:38;;;;;;;17.00;13.00;;;;;;;12.20;100.00;98391.45;137204;1279;22118;-80
2023/07/27 02:14:39;;;;;;;16.20;12.70;;;;;;;12.17;100.00;98403.50;137126;1279;22592;-80
2023/07/27 02:17:40;;;;;;;14.20;12.20;;;;;;;12.17;100.00;98409.78;137192;1279;22105;-81
2023/07/27 02:20:41;;;;;;;16.70;12.90;;;;;;;12.15;100.00;98410.48;137164;1279;22096;-79
2023/07/27 02:23:42;;;;;;;16.60;12.80;;;;;;;12.14;100.00;98405.41;137167;1279;22129;-80
2023/07/27 02:26:44;;;;;;;19.50;13.70;;;;;;;12.12;100.00;98398.59;137157;1279;22114;-79
2023/07/27 02:29:45;;;;;;;15.50;13.80;;;;;;;12.12;100.00;98405.56;137131;1279;22406;-79
2023/07/27 02:32:46;;;;;;;20.60;12.40;;;;;;;12.13;100.00;98412.20;137137;1279;22094;-79
2023/07/27 02:35:47;;;;;;;20.40;13.90;;;;;;;12.12;100.00;98414.29;137118;1277;22218;-80
2023/07/27 02:38:48;;;;;;;21.10;15.80;;;;;;;12.13;100.00;98416.57;137094;1279;22162;-79
2023/07/27 02:41:49;;;;;;;20.30;15.00;;;;;;;12.12;100.00;98425.63;137177;1279;22174;-79
2023/07/27 02:44:50;;;;;;;18.80;15.40;;;;;;;12.09;100.00;98422.14;137204;1279;22059;-79
2023/07/27 02:47:51;;;;;;;17.80;13.10;;;;;;;12.05;100.00;98422.48;137167;1279;22165;-80
2023/07/27 02:50:52;;;;;;;18.50;12.60;;;;;;;12.00;100.00;98426.85;137110;1279;22582;-79
2023/07/27 02:53:53;;;;;;;19.40;12.90;;;;;;;11.96;100.00;98433.30;137206;1279;22049;-80
2023/07/27 02:56:54;;;;;;;21.10;11.40;;;;;;;11.91;100.00;98438.02;137170;1279;22249;-80
2023/07/27 02:59:55;;;;;;;18.20;12.30;;;;;;;11.89;100.00;98442.55;137189;1279;22358;-79
2023/07/27 03:02:56;;;;;;;17.20;11.10;;;;;;;11.84;100.00;98448.48;137174;1279;22081;-80
2023/07/27 03:05:57;;;;;;;15.70;11.00;;;;;;;11.76;100.00;98454.73;137155;1279;22055;-79
2023/07/27 03:08:58;;;;;;;14.80;10.70;;;;;;;11.72;100.00;98462.55;137204;1279;22050;-80
2023/07/27 03:11:59;;;;;;;11.20;9.20;;;;;;;11.67;100.00;98464.81;137247;1279;22042;-80
2023/07/27 03:15:01;;;;;;;9.80;8.80;;;;;;;11.60;100.00;98463.06;137260;1279;22077;-80
2023/07/27 03:18:02;;;;;;;14.60;10.70;;;;;;;11.54;100.00;98462.00;137245;1279;22060;-80
2023/07/27 03:21:03;;;;;;;15.60;9.30;;;;;;;11.46;100.00;98458.68;137159;1279;22080;-80
2023/07/27 03:24:04;;;;;;;13.30;8.80;;;;;;;11.39;100.00;98461.63;137181;1279;22057;-79
2023/07/27 03:27:05;;;;;;;17.90;10.90;;;;;;;11.36;100.00;98460.40;137128;1279;22110;-80
2023/07/27 03:30:06;;;;;;;17.90;11.50;;;;;;;11.34;100.00;98463.88;137149;1273;22115;-81
2023/07/27 03:33:07;;;;;;;21.80;14.50;;;;;;;11.34;100.00;98461.97;137069;1279;22642;-80
2023/07/27 03:36:08;;;;;;;16.30;9.70;;;;;;;11.33;100.00;98463.70;137051;1279;22078;-80
2023/07/27 03:39:09;;;;;;;14.00;10.20;;;;;;;11.32;100.00;98476.59;136933;1279;22161;-80
2023/07/27 03:42:10;;;;;;;17.00;11.30;;;;;;;11.30;100.00;98478.33;137088;1279;22153;-80
2023/07/27 03:45:11;;;;;;;13.90;9.80;;;;;;;11.28;100.00;98477.27;137061;1279;22147;-80
2023/07/27 03:48:12;;;;;;;11.50;9.10;;;;;;;11.28;100.00;98476.75;137033;1279;22160;-80
2023/07/27 03:51:13;;;;;;;19.20;9.20;;;;;;;11.28;100.00;98473.95;137032;1279;22611;-80
2023/07/27 03:54:19;;;;;;;13.70;9.20;;;;;;;11.28;100.00;98472.23;137022;1279;22113;-80
2023/07/27 03:57:20;;;;;;;21.60;19.60;;;;;;;11.30;100.00;98473.45;137021;1279;22096;-80
2023/07/27 04:00:22;;;;;;;15.30;12.50;;;;;;;11.29;100.00;98476.92;137006;1279;22118;-80
2023/07/27 04:03:23;;;;;;;13.40;11.00;;;;;;;11.32;100.00;98481.98;136970;1279;22068;-80
2023/07/27 04:06:24;;;;;;;17.10;9.90;;;;;;;11.35;100.00;98488.27;137012;1279;22170;-79
2023/07/27 04:09:25;;;;;;;15.00;9.90;;;;;;;11.38;100.00;98490.02;136967;1279;22129;-82
2023/07/27 04:12:26;;;;;;;11.60;8.10;;;;;;;11.42;100.00;98490.04;137012;1279;22105;-81
2023/07/27 04:15:28;;;;;;;13.60;7.80;;;;;;;11.48;100.00;98489.17;137091;1279;22114;-79
2023/07/27 04:18:29;;;;;;;11.40;8.90;;;;;;;11.54;100.00;98487.63;137079;1279;22104;-81
2023/07/27 04:21:30;;;;;;;22.50;9.80;;;;;;;11.60;100.00;98492.52;137065;1279;22114;-79
2023/07/27 04:24:31;;;;;;;12.50;7.90;;;;;;;11.64;100.00;98500.20;137146;1279;22109;-79
2023/07/27 04:27:32;;;;;;;14.20;7.40;;;;;;;11.70;100.00;98503.52;136993;1279;22092;-80
2023/07/27 04:30:33;;;;;;;13.90;7.20;;;;;;;11.78;100.00;98501.11;137010;1279;22172;-80
2023/07/27 04:33:34;;;;;;;13.40;8.90;;;;;;;11.89;100.00;98501.48;137031;1279;22279;-80
2023/07/27 04:36:35;;;;;;;16.50;9.80;;;;;;;12.03;100.00;98503.42;136997;1279;22145;-80
2023/07/27 04:39:39;;;;;;;13.80;8.10;;;;;;;12.15;100.00;98499.42;136978;1279;22646;-80
2023/07/27 04:42:40;;;;;;;12.60;6.50;;;;;;;12.31;100.00;98498.39;137006;1279;22626;-80
2023/07/27 04:45:41;;;;;;;12.60;6.20;;;;;;;12.39;100.00;98501.35;136989;1279;22117;-80
2023/07/27 04:48:42;;;;;;;12.00;6.50;;;;;;;12.58;100.00;98503.23;136947;1279;22073;-83
2023/07/27 04:51:43;;;;;;;11.20;5.80;;;;;;;13.03;100.00;98508.05;136972;1279;22170;-82
2023/07/27 04:54:44;;;;;;;18.10;7.00;;;;;;;12.97;100.00;98508.92;136966;1279;22106;-82
2023/07/27 04:57:46;;;;;;;14.40;6.30;;;;;;;12.97;100.00;98506.13;136933;1279;22100;-83
2023/07/27 05:00:47;;;;;;;12.90;5.90;;;;;;;13.48;100.00;98501.24;136935;1279;22194;-84
2023/07/27 05:03:48;;;;;;;11.60;6.00;;;;;;;13.83;100.00;98507.35;137000;1279;22151;-81
2023/07/27 05:06:49;;;;;;;12.50;6.10;;;;;;;14.16;100.00;98502.91;136954;1267;22139;-82
2023/07/27 05:09:50;;;;;;;11.10;5.30;;;;;;;14.78;100.00;98506.44;137008;1279;22120;-84
2023/07/27 05:12:51;;;;;;;11.40;5.90;;;;;;;15.28;100.00;98506.75;136987;1279;22591;-82
2023/07/27 05:15:52;;;;;;;15.30;5.60;;;;;;;15.71;100.00;98509.75;136982;1279;22144;-85
2023/07/27 05:18:54;;;;;;;7.80;4.30;;;;;;;15.75;100.00;98512.33;136965;1279;22170;-82
2023/07/27 05:21:55;;;;;;;7.60;4.90;;;;;;;14.98;100.00;98513.05;136963;1279;22181;-82
2023/07/27 05:24:56;;;;;;;6.70;5.20;;;;;;;14.23;100.00;98510.75;136917;1279;22092;-83
2023/07/27 05:27:57;;;;;;;10.80;5.80;;;;;;;13.94;100.00;98516.73;136968;1279;22102;-82
2023/07/27 05:30:58;;;;;;;10.90;4.90;;;;;;;13.88;100.00;98515.19;136974;1276;22097;-82
2023/07/27 05:33:59;;;;;;;9.60;4.80;;;;;;;14.59;100.00;98515.00;136981;1279;22563;-83
2023/07/27 05:37:00;;;;;;;7.20;5.40;;;;;;;14.37;100.00;98518.69;136968;1279;22139;-81
2023/07/27 05:40:01;;;;;;;6.50;5.50;;;;;;;14.02;100.00;98522.10;137028;1279;22125;-82
2023/07/27 05:43:02;;;;;;;8.80;5.40;;;;;;;13.90;100.00;98524.45;136988;1279;22088;-84
2023/07/27 05:46:03;;;;;;;10.60;5.60;;;;;;;13.93;100.00;98523.56;137006;1279;22084;-82
2023/07/27 05:49:05;;;;;;;9.70;6.10;;;;;;;14.24;100.00;98524.39;136995;1279;22528;-83
2023/07/27 05:52:06;;;;;;;10.10;5.20;;;;;;;14.38;100.00;98525.67;137005;1273;22088;-83
2023/07/27 05:55:07;;;;;;;9.40;5.10;;;;;;;14.45;100.00;98525.99;137036;1279;22823;-83
2023/07/27 05:58:08;;;;;;;6.00;4.70;;;;;;;14.70;100.00;98523.14;137013;1279;22131;-82
2023/07/27 06:01:09;;;;;;;11.00;5.00;;;;;;;14.83;100.00;98520.77;136993;1279;22104;-84
2023/07/27 06:04:11;;;;;;;6.10;4.90;;;;;;;14.86;100.00;98517.39;137037;1279;22109;-83
2023/07/27 06:07:13;;;;;;;19.10;4.70;;;;;;;15.72;100.00;98527.61;137002;1279;22118;-83
2023/07/27 06:10:14;;;;;;;6.10;4.80;;;;;;;15.95;100.00;98536.08;137028;1279;22153;-82
2023/07/27 06:13:15;;;;;;;11.50;4.90;;;;;;;15.62;100.00;98528.11;137019;1276;22762;-80
2023/07/27 06:16:16;;;;;;;9.40;5.10;;;;;;;16.14;100.00;98525.43;137069;1279;22116;-82
2023/07/27 06:19:17;;;;;;;8.50;4.90;;;;;;;16.26;100.00;98525.95;136963;1279;22115;-83
2023/07/27 06:22:18;;;;;;;7.40;4.30;;;;;;;15.89;100.00;98531.25;136974;1279;22092;-82
2023/07/27 06:25:19;;;;;;;8.00;4.70;;;;;;;15.75;100.00;98523.55;137004;1279;22136;-83
2023/07/27 06:28:21;;;;;;;6.80;3.90;;;;;;;16.04;100.00;98528.74;137008;1279;22128;-82
2023/07/27 06:31:23;;;;;;;6.00;4.40;;;;;;;15.88;100.00;98532.85;137026;1272;22188;-83
2023/07/27 06:34:25;;;;;;;5.40;4.00;;;;;;;15.75;100.00;98528.11;136974;1279;22123;-83
2023/07/27 06:37:26;;;;;;;6.10;4.20;;;;;;;16.20;100.00;98523.77;136956;1279;22212;-82
2023/07/27 06:40:27;;;;;;;12.20;4.30;;;;;;;16.01;100.00;98524.41;137009;1279;22136;-83
2023/07/27 06:43:29;;;;;;;5.00;3.90;;;;;;;16.29;100.00;98519.41;136968;1279;22171;-84
2023/07/27 06:46:30;;;;;;;7.80;4.20;;;;;;;16.39;100.00;98526.27;137018;1279;22572;-83
2023/07/27 06:49:31;;;;;;;9.50;3.40;;;;;;;15.97;100.00;98530.61;136980;1274;22113;-86
2023/07/27 06:52:32;;;;;;;8.20;3.80;;;;;;;16.14;100.00;98522.27;137108;1279;22085;-82
2023/07/27 06:55:33;;;;;;;5.60;3.60;;;;;;;16.39;100.00;98524.69;137152;1279;22193;-83
2023/07/27 06:58:35;;;;;;;11.20;3.90;;;;;;;16.40;100.00;98526.59;137112;1279;22104;-83
2023/07/27 07:01:38;;;;;;;5.50;3.60;;;;;;;16.58;100.00;98528.95;137081;1279;22140;-83
2023/07/27 07:04:41;;;;;;;6.10;4.10;;;;;;;16.38;100.00;98528.91;137272;1279;22113;-82
2023/07/27 07:07:43;;;;;;;7.10;3.40;;;;;;;16.32;100.00;98526.21;136783;1279;22040;-83
2023/07/27 07:10:44;;;;;;;5.10;3.70;;;;;;;16.30;100.00;98526.41;136496;1287;22109;-83
2023/07/27 07:13:46;;;;;;;4.70;3.70;;;;;;;16.72;100.00;98527.50;136454;1287;22079;-82
2023/07/27 07:16:47;;;;;;;3.80;3.40;;;;;;;16.78;100.00;98533.37;136435;1287;22163;-82
2023/07/27 07:19:48;;;;;;;6.50;3.60;;;;;;;16.75;100.00;98532.73;136444;1287;22183;-82
2023/07/27 07:22:49;;;;;;;4.80;3.60;;;;;;;16.72;100.00;98532.59;136412;1287;22121;-82
2023/07/27 07:25:50;;;;;;;5.50;3.70;;;;;;;17.03;100.00;98532.91;136386;1287;22202;-83
2023/07/27 07:28:51;;;;;;;4.30;3.30;;;;;;;17.34;100.00;98530.56;136395;1287;22116;-82
2023/07/27 07:31:53;;;;;;;10.50;4.40;;;;;;;17.75;100.00;98532.73;136448;1287;22264;-83
2023/07/27 07:34:54;;;;;;;3.70;2.90;;;;;;;18.41;100.00;98534.38;136427;1287;22131;-83
2023/07/27 07:37:55;;;;;;;10.50;3.50;;;;;;;18.40;100.00;98543.04;136482;1287;22127;-82
2023/07/27 07:40:56;;;;;;;6.90;3.50;;;;;;;18.11;100.00;98542.30;136469;1276;22480;-82
2023/07/27 07:43:57;;;;;;;13.40;3.40;;;;;;;18.02;100.00;98537.42;136459;1287;22171;-84
2023/07/27 07:46:58;;;;;;;6.10;3.10;;;;;;;18.02;100.00;98530.89;136444;1287;22125;-82
2023/07/27 07:50:00;;;;;;;5.90;3.30;;;;;;;18.10;100.00;98533.86;136453;1287;22158;-83
2023/07/27 07:53:01;;;;;;;7.90;3.60;;;;;;;18.43;100.00;98534.33;136468;1287;22102;-83
2023/07/27 07:56:03;;;;;;;5.40;2.80;;;;;;;19.03;100.00;98536.36;136393;1287;22190;-83
2023/07/27 07:59:04;;;;;;;5.80;2.70;;;;;;;18.68;100.00;98536.02;136446;1287;22247;-82
2023/07/27 08:02:05;;;;;;;3.40;2.70;;;;;;;18.92;100.00;98539.46;136467;1287;22119;-84
2023/07/27 08:05:06;;;;;;;4.30;3.20;;;;;;;18.94;100.00;98541.01;136469;1285;22616;-83
2023/07/27 08:08:07;;;;;;;3.70;3.40;;;;;;;18.65;100.00;98550.54;136468;1280;22610;-83
2023/07/27 08:11:08;;;;;;;7.10;4.10;;;;;;;18.36;100.00;98545.96;136478;1287;22069;-84
2023/07/27 08:14:09;;;;;;;3.90;2.90;;;;;;;18.46;100.00;98545.18;136491;1287;22115;-82
2023/07/27 08:17:10;;;;;;;3.90;3.00;;;;;;;18.83;100.00;98543.41;136500;1287;22080;-83
2023/07/27 08:20:12;;;;;;;4.40;2.90;;;;;;;18.84;100.00;98538.26;136382;1287;22181;-82
2023/07/27 08:23:13;;;;;;;3.80;2.70;;;;;;;18.90;100.00;98537.21;136456;1287;22130;-84
2023/07/27 08:26:15;;;;;;;4.60;2.60;;;;;;;19.01;100.00;98539.22;136464;1287;22622;-83
2023/07/27 08:29:16;;;;;;;2.80;2.50;;;;;;;19.42;100.00;98533.89;136466;1287;22103;-82
2023/07/27 08:32:17;;;;;;;5.30;2.60;;;;;;;19.38;70.02;98539.64;136446;1287;22091;-82
2023/07/27 08:35:18;;;;;;;5.10;2.40;;;;;;;19.19;64.88;98534.52;136400;1287;22231;-83
2023/07/27 08:38:19;;;;;;;3.90;2.60;;;;;;;19.39;62.38;98533.61;136434;1287;22116;-82
2023/07/27 08:41:21;;;;;;;2.60;2.40;;;;;;;19.44;61.95;98531.52;136442;1287;22110;-79
2023/07/27 08:44:22;;;;;;;11.30;2.50;;;;;;;19.41;61.15;98528.25;136470;1287;22106;-83
2023/07/27 08:47:23;;;;;;;2.50;2.20;;;;;;;19.68;61.13;98518.30;136503;1287;22072;-83
2023/07/27 08:50:24;;;;;;;28.80;3.20;;;;;;;19.74;57.52;98519.20;136488;1287;22577;-82
2023/07/27 08:53:25;;;;;;;2.30;1.90;;;;;;;19.58;57.60;98515.77;136474;1287;22716;-82
2023/07/27 08:56:26;;;;;;;2.10;1.90;;;;;;;19.65;58.60;98516.83;136490;1287;22141;-81
2023/07/27 08:59:27;;;;;;;4.80;2.30;;;;;;;19.75;61.00;98510.53;136459;1287;22151;-81
2023/07/27 09:02:29;;;;;;;3.00;2.00;;;;;;;20.43;60.17;98508.73;136477;1287;22115;-82
2023/07/27 09:05:30;;;;;;;3.70;2.60;;;;;;;20.49;59.92;98511.74;136479;1287;22134;-82
2023/07/27 09:08:31;;;;;;;3.30;2.80;;;;;;;20.78;58.74;98511.80;136471;1287;22183;-82
2023/07/27 09:11:32;;;;;;;9.90;3.10;;;;;;;21.05;58.65;98510.00;136456;1287;22175;-82
2023/07/27 09:14:33;;;;;;;5.90;2.30;;;;;;;21.59;56.65;98508.58;136482;1287;22094;-81
2023/07/27 09:17:34;;;;;;;4.00;2.00;;;;;;;21.83;56.20;98509.27;136475;1287;22191;-82
2023/07/27 09:20:35;;;;;;;2.70;2.10;;;;;;;21.66;52.67;98510.43;136476;1287;22108;-84
2023/07/27 09:23:37;;;;;;;2.30;2.10;;;;;;;21.09;53.98;98507.76;136474;1287;22189;-83
2023/07/27 09:26:38;;;;;;;1.90;1.70;;;;;;;21.28;54.08;98512.03;136491;1287;22626;-82
2023/07/27 09:29:39;;;;;;;2.40;2.20;;;;;;;21.30;51.04;98509.11;136497;1287;22161;-83
2023/07/27 09:32:41;;;;;;;2.30;1.90;;;;;;;21.19;52.80;98508.81;136485;1287;22087;-82
2023/07/27 09:35:43;;;;;;;3.00;1.80;;;;;;;21.33;53.35;98504.08;136472;1287;22112;-82
2023/07/27 09:38:44;;;;;;;2.50;1.90;;;;;;;21.06;51.75;98509.44;136449;1287;22098;-81
2023/07/27 09:41:46;;;;;;;49.90;5.60;;;;;;;20.58;52.64;98504.55;136485;1287;22935;-82
2023/07/27 09:44:49;;;;;;;7.00;2.20;;;;;;;20.77;53.42;98498.05;136457;1287;22721;-81
2023/07/27 09:47:51;;;;;;;3.90;2.10;;;;;;;21.19;53.50;98497.81;136438;1287;22186;-82
2023/07/27 09:50:53;;;;;;;1.90;1.80;;;;;;;21.24;53.23;98499.60;136461;1287;22592;-81
2023/07/27 09:53:54;;;;;;;2.30;1.80;;;;;;;21.44;52.52;98499.22;136473;1287;22225;-81
2023/07/27 09:56:55;;;;;;;11.70;2.20;;;;;;;21.51;50.23;98501.95;136478;1287;22556;-81
2023/07/27 09:59:56;;;;;;;2.90;1.80;;;;;;;21.95;50.14;98502.63;136409;1287;22477;-82
2023/07/27 10:02:57;;;;;;;3.40;1.70;;;;;;;22.06;48.60;98506.27;136474;1287;22647;-83
2023/07/27 10:05:58;;;;;;;1.60;1.50;;;;;;;22.08;49.00;98498.05;136445;1287;22098;-83
2023/07/27 10:09:00;;;;;;;17.40;2.80;;;;;;;22.40;51.08;98497.26;136455;1287;22803;-81
2023/07/27 10:12:01;;;;;;;2.30;1.70;;;;;;;23.02;48.83;98492.88;136437;1287;22068;-81
2023/07/27 10:15:02;;;;;;;1.90;1.80;;;;;;;22.67;45.76;98497.19;136443;1287;22116;-81
2023/07/27 10:18:03;;;;;;;1.90;1.80;;;;;;;22.26;47.60;98488.60;136473;1280;22680;-83
2023/07/27 10:21:05;;;;;;;33.20;3.10;;;;;;;22.18;46.43;98482.73;136465;1287;22183;-82
2023/07/27 10:24:06;;;;;;;2.80;1.90;;;;;;;22.39;47.97;98480.63;136329;1287;172362;-82
2023/07/27 10:27:07;;;;;;;5.70;1.70;;;;;;;22.57;47.24;98475.98;136475;1285;22615;-81
2023/07/27 10:30:08;;;;;;;2.10;2.00;;;;;;;22.79;47.25;98478.80;136446;1287;22144;-80
2023/07/27 10:33:15;;;;;;;1.70;1.60;;;;;;;22.84;46.07;98475.20;136446;1287;22607;-80
2023/07/27 10:36:16;;;;;;;2.50;1.80;;;;;;;23.09;47.36;98471.48;136359;1274;22161;-82
2023/07/27 10:39:18;;;;;;;2.60;2.00;;;;;;;23.54;45.66;98475.31;136462;1287;22140;-82
2023/07/27 10:42:19;;;;;;;4.30;1.90;;;;;;;23.83;45.42;98467.73;136414;1287;22144;-81
2023/07/27 10:45:20;;;;;;;3.10;1.80;;;;;;;23.74;43.96;98468.70;136494;1285;22160;-82
2023/07/27 10:48:21;;;;;;;2.30;1.70;;;;;;;23.38;44.95;98465.91;136509;1287;22123;-84
2023/07/27 10:51:22;;;;;;;1.70;1.60;;;;;;;22.98;43.26;98470.02;136521;1287;22147;-84
2023/07/27 10:54:23;;;;;;;5.30;2.20;;;;;;;22.78;44.49;98465.90;136475;1287;22118;-83
2023/07/27 10:57:25;;;;;;;1.90;1.80;;;;;;;23.25;45.37;98456.35;136425;1287;22164;-82
2023/07/27 11:00:26;;;;;;;18.10;2.40;;;;;;;23.53;42.88;98457.41;136478;1287;22161;-83
2023/07/27 11:03:27;;;;;;;1.90;1.70;;;;;;;23.27;44.72;98453.42;136481;1287;22107;-82
2023/07/27 11:06:28;;;;;;;8.00;2.00;;;;;;;23.68;44.05;98449.95;136486;1287;22539;-84
2023/07/27 11:09:29;;;;;;;4.80;1.80;;;;;;;24.08;44.03;98443.08;136459;1287;22092;-82
2023/07/27 11:12:30;;;;;;;4.40;2.10;;;;;;;24.17;41.49;98444.59;136494;1287;22145;-82
2023/07/27 11:15:32;;;;;;;2.80;1.90;;;;;;;24.18;42.02;98438.13;136480;1287;22135;-80
2023/07/27 11:18:33;;;;;;;2.30;1.90;;;;;;;24.11;42.66;98440.42;136480;1287;22582;-82
2023/07/27 11:21:34;;;;;;;6.70;2.00;;;;;;;24.21;40.53;98438.69;136454;1270;22063;-80
2023/07/27 11:24:35;;;;;;;2.70;1.80;;;;;;;24.17;41.66;98436.41;136419;1287;22790;-80
2023/07/27 11:27:36;;;;;;;2.40;2.10;;;;;;;24.05;41.72;98432.34;136449;1276;22117;-84
2023/07/27 11:30:38;;;;;;;2.70;2.30;;;;;;;23.59;41.51;98438.83;136173;1287;22292;-80
2023/07/27 11:33:39;;;;;;;3.30;2.00;;;;;;;23.19;41.96;98430.52;136436;1287;22132;-84
2023/07/27 11:36:40;;;;;;;2.80;2.20;;;;;;;23.03;44.26;98429.14;136442;1287;22095;-85
2023/07/27 11:39:41;;;;;;;8.10;2.30;;;;;;;23.25;43.86;98427.59;136463;1287;22183;-82
2023/07/27 11:42:42;;;;;;;2.80;1.70;;;;;;;23.58;42.85;98422.36;136438;1287;22146;-84
2023/07/27 11:45:43;;;;;;;6.60;2.80;;;;;;;23.65;42.83;98426.11;136442;1287;22132;-84
2023/07/27 11:48:44;;;;;;;4.40;1.90;;;;;;;23.74;44.24;98414.86;136437;1287;22123;-83
2023/07/27 11:51:45;;;;;;;5.20;1.80;;;;;;;23.80;43.22;98422.40;136438;1287;22115;-84
2023/07/27 11:54:47;;;;;;;7.70;2.30;;;;;;;23.48;43.41;98426.02;136452;1287;22184;-84
2023/07/27 11:57:48;;;;;;;6.30;1.90;;;;;;;23.27;43.44;98419.91;136449;1274;22158;-85
2023/07/27 12:00:50;;;;;;;13.10;2.80;;;;;;;23.15;43.78;98414.05;136406;1287;22644;-85
2023/07/27 12:03:53;;;;;;;48.10;5.10;;;;;;;23.16;45.59;98402.98;136434;1287;22569;-89
2023/07/27 12:06:54;;;;;;;9.40;2.90;;;;;;;23.36;45.94;98394.60;136422;1287;22114;-85
2023/07/27 12:09:58;;;;;;;22.40;3.60;;;;;;;23.49;46.01;98391.55;136456;1287;22468;-87
2023/07/27 12:13:00;;;;;;;2.40;2.00;;;;;;;23.86;44.87;98395.25;136464;1287;22125;-82
2023/07/27 12:16:01;;;;;;;4.50;1.90;;;;;;;23.98;42.56;98388.97;136433;1287;22129;-84
2023/07/27 12:19:02;;;;;;;3.80;2.00;;;;;;;23.89;42.63;98385.86;136409;1276;22586;-83
2023/07/27 12:22:03;;;;;;;8.70;2.40;;;;;;;23.78;42.68;98387.84;136410;1287;22154;-84
2023/07/27 12:25:05;;;;;;;2.60;2.20;;;;;;;23.67;43.12;98387.30;136350;1287;22069;-83
2023/07/27 12:28:07;;;;;;;2.30;2.10;;;;;;;24.01;43.52;98383.67;136388;1287;22288;-83
2023/07/27 12:31:09;;;;;;;5.50;2.00;;;;;;;24.51;43.48;98375.50;136389;1287;22267;-83
2023/07/27 12:34:10;;;;;;;9.60;2.50;;;;;;;24.80;42.71;98372.93;136422;1287;22052;-82
2023/07/27 12:37:11;;;;;;;4.10;2.00;;;;;;;24.90;42.76;98376.09;136472;1287;22075;-85
2023/07/27 12:40:13;;;;;;;3.30;2.00;;;;;;;24.93;41.51;98376.16;136477;1287;22241;-83
2023/07/27 12:43:14;;;;;;;1.60;1.50;;;;;;;24.95;41.32;98367.11;136465;1287;22727;-83
2023/07/27 12:46:15;;;;;;;4.10;2.20;;;;;;;25.08;41.28;98360.20;136476;1287;22707;-82
2023/07/27 12:49:16;;;;;;;3.20;2.40;;;;;;;25.14;41.34;98359.36;136495;1287;22121;-84
2023/07/27 12:52:18;;;;;;;2.10;1.90;;;;;;;25.32;40.31;98366.55;136511;1287;22303;-82
2023/07/27 12:55:20;;;;;;;2.00;1.80;;;;;;;25.24;39.06;98371.10;136486;1287;22164;-82
2023/07/27 12:58:21;;;;;;;8.60;2.30;;;;;;;25.02;39.49;98367.65;136510;1287;22143;-80
2023/07/27 13:01:22;;;;;;;6.70;1.90;;;;;;;25.04;39.19;98366.98;136461;1287;22081;-80
2023/07/27 13:04:23;;;;;;;5.20;2.10;;;;;;;24.76;39.15;98370.07;136532;1286;22147;-79
2023/07/27 13:07:24;;;;;;;5.90;2.80;;;;;;;24.34;39.80;98366.60;136481;1287;22122;-79
2023/07/27 13:10:26;;;;;;;5.90;2.30;;;;;;;24.16;41.00;98366.55;136527;1288;22186;-80
2023/07/27 13:13:27;;;;;;;3.40;2.20;;;;;;;24.00;41.68;98367.36;136559;1287;22079;-80
2023/07/27 13:16:28;;;;;;;2.60;2.00;;;;;;;23.84;41.51;98366.74;136567;1288;22106;-80
2023/07/27 13:19:29;;;;;;;3.60;1.90;;;;;;;23.62;41.89;98366.79;136579;1285;22074;-81
2023/07/27 13:22:30;;;;;;;71.60;5.90;;;;;;;23.54;42.92;98365.75;136521;1287;22192;-81
2023/07/27 13:25:31;;;;;;;5.40;2.20;;;;;;;23.69;43.69;98361.98;136484;1287;22615;-81
2023/07/27 13:28:32;;;;;;;3.90;2.00;;;;;;;24.12;42.85;98356.30;136469;1287;22666;-81
2023/07/27 13:31:34;;;;;;;2.80;2.00;;;;;;;24.37;41.57;98356.51;136451;1287;22100;-80
2023/07/27 13:34:35;;;;;;;2.00;1.80;;;;;;;24.67;41.65;98344.59;136454;1288;22122;-81
2023/07/27 13:37:36;;;;;;;46.60;5.10;;;;;;;25.17;40.82;98338.39;136443;1287;22178;-82
2023/07/27 13:40:37;;;;;;;10.90;2.80;;;;;;;25.50;40.15;98333.52;136442;1287;22127;-81
2023/07/27 13:43:38;;;;;;;9.50;2.30;;;;;;;25.58;39.66;98338.95;136471;1287;22115;-80
2023/07/27 13:46:39;;;;;;;2.00;1.80;;;;;;;25.31;39.71;98339.88;136455;1287;22156;-81
2023/07/27 13:49:40;;;;;;;3.00;2.10;;;;;;;25.15;40.45;98338.65;136457;1286;22190;-80